Alger, Ohio
Current Conditions -  °F | °C
As of 7:02 AM on Thursday 23 Oct 2014 (Local Time) from KAOH Reporting Station
Moderate Fog Moderate Fog  
Wind Chill: 34°   Ceiling: 300
Heat Index: 34°   Visibility: 0.25mi
Dew Point: 32°   Wind: 0mph
Humidity: 92%   Direction: NA
Pressure: 30.24"   Gusts: NA
Location:  40.71°N, 83.84°W
Report Text: KAOH 231102Z AUTO 00000KT 1/4SM FG VV003 01/00 A3024 RMK AO2 T00110000
Loading
Personal Weather Stations






























Interactive Weather Map New forecast layout! Learn more

10-Day Weather Forecast

Advertisements
Track Severe Weather on mobile